sensor_id;sensor_type;location;lat;lon;timestamp;P1;durP1;ratioP1;P2;durP2;ratioP2
53959;SDS011;39866;48.638;-2.020;2022-07-18T00:01:55;4.43;;;1.55;;
53959;SDS011;39866;48.638;-2.020;2022-07-18T00:04:22;3.03;;;1.30;;
53959;SDS011;39866;48.638;-2.020;2022-07-18T00:06:47;4.07;;;1.30;;
53959;SDS011;39866;48.638;-2.020;2022-07-18T00:09:13;3.17;;;1.30;;
53959;SDS011;39866;48.638;-2.020;2022-07-18T00:11:38;3.83;;;1.20;;
53959;SDS011;39866;48.638;-2.020;2022-07-18T00:14:04;3.85;;;1.15;;
53959;SDS011;39866;48.638;-2.020;2022-07-18T00:16:29;3.42;;;1.30;;
53959;SDS011;39866;48.638;-2.020;2022-07-18T00:18:55;2.60;;;1.40;;
53959;SDS011;39866;48.638;-2.020;2022-07-18T00:21:22;2.90;;;1.05;;
53959;SDS011;39866;48.638;-2.020;2022-07-18T00:23:47;5.78;;;1.25;;
53959;SDS011;39866;48.638;-2.020;2022-07-18T00:26:13;3.80;;;1.40;;
53959;SDS011;39866;48.638;-2.020;2022-07-18T00:28:38;3.33;;;1.10;;
53959;SDS011;39866;48.638;-2.020;2022-07-18T00:31:04;3.45;;;1.27;;
53959;SDS011;39866;48.638;-2.020;2022-07-18T00:33:29;2.80;;;1.30;;
53959;SDS011;39866;48.638;-2.020;2022-07-18T00:35:55;3.97;;;1.35;;
53959;SDS011;39866;48.638;-2.020;2022-07-18T00:38:20;4.38;;;1.38;;
53959;SDS011;39866;48.638;-2.020;2022-07-18T00:40:46;2.55;;;1.20;;
53959;SDS011;39866;48.638;-2.020;2022-07-18T00:43:12;3.92;;;1.27;;
53959;SDS011;39866;48.638;-2.020;2022-07-18T00:45:39;5.57;;;1.63;;
53959;SDS011;39866;48.638;-2.020;2022-07-18T00:48:08;2.30;;;1.30;;
53959;SDS011;39866;48.638;-2.020;2022-07-18T00:50:34;5.55;;;1.33;;
53959;SDS011;39866;48.638;-2.020;2022-07-18T00:52:59;5.75;;;1.70;;
53959;SDS011;39866;48.638;-2.020;2022-07-18T00:55:25;3.58;;;1.30;;
53959;SDS011;39866;48.638;-2.020;2022-07-18T00:57:50;3.60;;;1.20;;
53959;SDS011;39866;48.638;-2.020;2022-07-18T01:00:16;3.65;;;1.20;;
53959;SDS011;39866;48.638;-2.020;2022-07-18T01:03:00;2.40;;;1.40;;
53959;SDS011;39866;48.638;-2.020;2022-07-18T01:05:26;3.97;;;1.40;;
53959;SDS011;39866;48.638;-2.020;2022-07-18T01:07:51;2.75;;;1.30;;
53959;SDS011;39866;48.638;-2.020;2022-07-18T01:10:17;3.45;;;1.30;;
53959;SDS011;39866;48.638;-2.020;2022-07-18T01:12:43;3.40;;;1.27;;
53959;SDS011;39866;48.638;-2.020;2022-07-18T01:15:12;4.20;;;1.40;;
53959;SDS011;39866;48.638;-2.020;2022-07-18T01:17:37;4.15;;;1.30;;
53959;SDS011;39866;48.638;-2.020;2022-07-18T01:20:03;2.55;;;1.33;;
53959;SDS011;39866;48.638;-2.020;2022-07-18T01:22:30;5.93;;;1.40;;
53959;SDS011;39866;48.638;-2.020;2022-07-18T01:24:55;2.20;;;1.30;;
53959;SDS011;39866;48.638;-2.020;2022-07-18T01:27:21;3.75;;;1.38;;
53959;SDS011;39866;48.638;-2.020;2022-07-18T01:29:47;4.15;;;1.30;;
53959;SDS011;39866;48.638;-2.020;2022-07-18T01:32:15;2.92;;;1.15;;
53959;SDS011;39866;48.638;-2.020;2022-07-18T01:34:41;3.00;;;1.30;;
53959;SDS011;39866;48.638;-2.020;2022-07-18T01:37:07;4.18;;;1.30;;
53959;SDS011;39866;48.638;-2.020;2022-07-18T01:39:33;4.03;;;1.25;;
53959;SDS011;39866;48.638;-2.020;2022-07-18T01:42:00;3.13;;;1.30;;
53959;SDS011;39866;48.638;-2.020;2022-07-18T01:44:28;4.43;;;1.40;;
53959;SDS011;39866;48.638;-2.020;2022-07-18T01:46:54;2.97;;;1.35;;
53959;SDS011;39866;48.638;-2.020;2022-07-18T01:49:20;2.47;;;1.30;;
53959;SDS011;39866;48.638;-2.020;2022-07-18T01:51:48;3.65;;;1.45;;
53959;SDS011;39866;48.638;-2.020;2022-07-18T01:54:15;5.00;;;1.20;;
53959;SDS011;39866;48.638;-2.020;2022-07-18T01:56:40;3.03;;;1.30;;
53959;SDS011;39866;48.638;-2.020;2022-07-18T01:59:06;2.90;;;1.17;;
53959;SDS011;39866;48.638;-2.020;2022-07-18T02:01:31;3.95;;;1.35;;
53959;SDS011;39866;48.638;-2.020;2022-07-18T02:03:56;3.13;;;1.70;;
53959;SDS011;39866;48.638;-2.020;2022-07-18T02:06:22;4.25;;;1.52;;
53959;SDS011;39866;48.638;-2.020;2022-07-18T02:08:47;4.20;;;1.33;;
53959;SDS011;39866;48.638;-2.020;2022-07-18T02:11:13;2.28;;;1.15;;
53959;SDS011;39866;48.638;-2.020;2022-07-18T02:13:38;2.22;;;1.27;;
53959;SDS011;39866;48.638;-2.020;2022-07-18T02:16:04;5.10;;;1.50;;
53959;SDS011;39866;48.638;-2.020;2022-07-18T02:18:29;3.33;;;1.40;;
53959;SDS011;39866;48.638;-2.020;2022-07-18T02:20:58;4.22;;;1.30;;
53959;SDS011;39866;48.638;-2.020;2022-07-18T02:23:24;2.97;;;1.35;;
53959;SDS011;39866;48.638;-2.020;2022-07-18T02:25:50;4.78;;;1.33;;
53959;SDS011;39866;48.638;-2.020;2022-07-18T02:28:15;3.45;;;1.30;;
53959;SDS011;39866;48.638;-2.020;2022-07-18T02:30:41;4.28;;;1.52;;
53959;SDS011;39866;48.638;-2.020;2022-07-18T02:33:06;2.10;;;1.20;;
53959;SDS011;39866;48.638;-2.020;2022-07-18T02:35:31;3.97;;;1.25;;
53959;SDS011;39866;48.638;-2.020;2022-07-18T02:37:57;4.00;;;1.42;;
53959;SDS011;39866;48.638;-2.020;2022-07-18T02:40:22;3.60;;;1.35;;
53959;SDS011;39866;48.638;-2.020;2022-07-18T02:42:47;5.32;;;1.35;;
53959;SDS011;39866;48.638;-2.020;2022-07-18T02:45:13;4.45;;;1.40;;
53959;SDS011;39866;48.638;-2.020;2022-07-18T02:47:39;4.45;;;1.60;;
53959;SDS011;39866;48.638;-2.020;2022-07-18T02:50:04;4.82;;;1.23;;
53959;SDS011;39866;48.638;-2.020;2022-07-18T02:52:30;4.43;;;1.55;;
53959;SDS011;39866;48.638;-2.020;2022-07-18T02:54:55;2.10;;;1.40;;
53959;SDS011;39866;48.638;-2.020;2022-07-18T02:57:21;4.07;;;1.42;;
53959;SDS011;39866;48.638;-2.020;2022-07-18T02:59:47;5.15;;;1.38;;
53959;SDS011;39866;48.638;-2.020;2022-07-18T03:02:13;5.18;;;1.40;;
53959;SDS011;39866;48.638;-2.020;2022-07-18T03:04:38;4.03;;;1.33;;
53959;SDS011;39866;48.638;-2.020;2022-07-18T03:07:04;3.30;;;1.30;;
53959;SDS011;39866;48.638;-2.020;2022-07-18T03:09:29;2.05;;;1.20;;
53959;SDS011;39866;48.638;-2.020;2022-07-18T03:11:56;2.33;;;1.27;;
53959;SDS011;39866;48.638;-2.020;2022-07-18T03:14:21;5.05;;;1.70;;
53959;SDS011;39866;48.638;-2.020;2022-07-18T03:16:47;5.05;;;1.63;;
53959;SDS011;39866;48.638;-2.020;2022-07-18T03:19:13;3.33;;;1.38;;
53959;SDS011;39866;48.638;-2.020;2022-07-18T03:21:38;3.13;;;1.50;;
53959;SDS011;39866;48.638;-2.020;2022-07-18T03:24:04;5.22;;;1.45;;
53959;SDS011;39866;48.638;-2.020;2022-07-18T03:26:29;2.55;;;1.42;;
53959;SDS011;39866;48.638;-2.020;2022-07-18T03:28:54;4.03;;;1.50;;
53959;SDS011;39866;48.638;-2.020;2022-07-18T03:31:20;5.07;;;1.23;;
53959;SDS011;39866;48.638;-2.020;2022-07-18T03:33:46;2.83;;;1.20;;
53959;SDS011;39866;48.638;-2.020;2022-07-18T03:36:11;3.53;;;1.40;;
53959;SDS011;39866;48.638;-2.020;2022-07-18T03:38:36;4.50;;;1.50;;
53959;SDS011;39866;48.638;-2.020;2022-07-18T03:41:02;5.10;;;1.40;;
53959;SDS011;39866;48.638;-2.020;2022-07-18T03:43:28;3.70;;;1.38;;
53959;SDS011;39866;48.638;-2.020;2022-07-18T03:45:54;5.95;;;1.67;;
53959;SDS011;39866;48.638;-2.020;2022-07-18T03:48:19;6.82;;;1.83;;
53959;SDS011;39866;48.638;-2.020;2022-07-18T03:50:45;6.18;;;1.88;;
53959;SDS011;39866;48.638;-2.020;2022-07-18T03:53:10;3.50;;;1.60;;
53959;SDS011;39866;48.638;-2.020;2022-07-18T03:55:36;8.73;;;2.58;;
53959;SDS011;39866;48.638;-2.020;2022-07-18T03:58:01;5.05;;;1.80;;
53959;SDS011;39866;48.638;-2.020;2022-07-18T04:00:27;3.83;;;1.58;;
53959;SDS011;39866;48.638;-2.020;2022-07-18T04:02:53;8.43;;;1.83;;
53959;SDS011;39866;48.638;-2.020;2022-07-18T04:05:18;4.13;;;1.75;;
53959;SDS011;39866;48.638;-2.020;2022-07-18T04:07:44;4.60;;;1.63;;
53959;SDS011;39866;48.638;-2.020;2022-07-18T04:10:10;5.78;;;1.40;;
53959;SDS011;39866;48.638;-2.020;2022-07-18T04:12:50;3.22;;;1.55;;
53959;SDS011;39866;48.638;-2.020;2022-07-18T04:15:18;6.45;;;1.70;;
53959;SDS011;39866;48.638;-2.020;2022-07-18T04:17:45;5.35;;;1.85;;
53959;SDS011;39866;48.638;-2.020;2022-07-18T04:20:11;5.22;;;1.80;;
53959;SDS011;39866;48.638;-2.020;2022-07-18T04:25:21;2.78;;;1.60;;
53959;SDS011;39866;48.638;-2.020;2022-07-18T04:27:48;4.55;;;1.77;;
53959;SDS011;39866;48.638;-2.020;2022-07-18T04:30:16;5.28;;;1.75;;
53959;SDS011;39866;48.638;-2.020;2022-07-18T04:32:44;8.98;;;2.45;;
53959;SDS011;39866;48.638;-2.020;2022-07-18T04:35:10;6.50;;;1.88;;
53959;SDS011;39866;48.638;-2.020;2022-07-18T04:37:36;6.53;;;1.90;;
53959;SDS011;39866;48.638;-2.020;2022-07-18T04:40:02;4.38;;;1.80;;
53959;SDS011;39866;48.638;-2.020;2022-07-18T04:42:28;6.57;;;1.60;;
53959;SDS011;39866;48.638;-2.020;2022-07-18T04:44:55;6.28;;;1.80;;
53959;SDS011;39866;48.638;-2.020;2022-07-18T04:47:20;5.45;;;2.00;;
53959;SDS011;39866;48.638;-2.020;2022-07-18T04:49:46;7.05;;;1.70;;
53959;SDS011;39866;48.638;-2.020;2022-07-18T04:52:11;5.03;;;1.98;;
53959;SDS011;39866;48.638;-2.020;2022-07-18T04:54:37;5.03;;;1.60;;
53959;SDS011;39866;48.638;-2.020;2022-07-18T04:57:02;5.40;;;1.83;;
53959;SDS011;39866;48.638;-2.020;2022-07-18T04:59:27;5.95;;;1.75;;
53959;SDS011;39866;48.638;-2.020;2022-07-18T05:01:53;4.68;;;1.92;;
53959;SDS011;39866;48.638;-2.020;2022-07-18T05:04:18;3.05;;;1.70;;
53959;SDS011;39866;48.638;-2.020;2022-07-18T05:06:43;6.88;;;2.00;;
53959;SDS011;39866;48.638;-2.020;2022-07-18T05:09:09;7.53;;;1.90;;
53959;SDS011;39866;48.638;-2.020;2022-07-18T05:11:34;6.20;;;2.42;;
53959;SDS011;39866;48.638;-2.020;2022-07-18T05:13:59;7.80;;;2.35;;
53959;SDS011;39866;48.638;-2.020;2022-07-18T05:16:25;6.03;;;2.10;;
53959;SDS011;39866;48.638;-2.020;2022-07-18T05:18:50;4.35;;;2.03;;
53959;SDS011;39866;48.638;-2.020;2022-07-18T05:21:15;5.97;;;1.85;;
53959;SDS011;39866;48.638;-2.020;2022-07-18T05:23:41;7.35;;;1.92;;
53959;SDS011;39866;48.638;-2.020;2022-07-18T05:26:06;7.03;;;1.90;;
53959;SDS011;39866;48.638;-2.020;2022-07-18T05:28:32;6.32;;;2.05;;
53959;SDS011;39866;48.638;-2.020;2022-07-18T05:30:57;5.53;;;1.77;;
53959;SDS011;39866;48.638;-2.020;2022-07-18T05:33:24;6.43;;;1.73;;
53959;SDS011;39866;48.638;-2.020;2022-07-18T05:35:49;5.93;;;1.95;;
53959;SDS011;39866;48.638;-2.020;2022-07-18T05:38:14;4.78;;;1.77;;
53959;SDS011;39866;48.638;-2.020;2022-07-18T05:40:40;9.10;;;1.73;;
53959;SDS011;39866;48.638;-2.020;2022-07-18T05:43:05;7.82;;;1.80;;
53959;SDS011;39866;48.638;-2.020;2022-07-18T05:45:31;5.93;;;1.60;;
53959;SDS011;39866;48.638;-2.020;2022-07-18T05:47:56;5.18;;;1.88;;
53959;SDS011;39866;48.638;-2.020;2022-07-18T05:50:22;5.30;;;2.10;;
53959;SDS011;39866;48.638;-2.020;2022-07-18T05:52:48;6.25;;;2.00;;
53959;SDS011;39866;48.638;-2.020;2022-07-18T05:55:14;7.40;;;1.75;;
53959;SDS011;39866;48.638;-2.020;2022-07-18T05:57:40;5.13;;;1.70;;
53959;SDS011;39866;48.638;-2.020;2022-07-18T06:00:06;8.30;;;1.73;;
53959;SDS011;39866;48.638;-2.020;2022-07-18T06:02:33;6.85;;;1.90;;
53959;SDS011;39866;48.638;-2.020;2022-07-18T06:04:59;4.18;;;1.73;;
53959;SDS011;39866;48.638;-2.020;2022-07-18T06:07:24;2.83;;;1.60;;
53959;SDS011;39866;48.638;-2.020;2022-07-18T06:09:50;6.18;;;1.73;;
53959;SDS011;39866;48.638;-2.020;2022-07-18T06:12:15;7.07;;;1.85;;
53959;SDS011;39866;48.638;-2.020;2022-07-18T06:14:41;6.60;;;2.00;;
53959;SDS011;39866;48.638;-2.020;2022-07-18T06:17:06;10.55;;;2.13;;
53959;SDS011;39866;48.638;-2.020;2022-07-18T06:19:32;7.13;;;1.80;;
53959;SDS011;39866;48.638;-2.020;2022-07-18T06:21:57;7.80;;;2.30;;
53959;SDS011;39866;48.638;-2.020;2022-07-18T06:24:23;6.88;;;1.60;;
53959;SDS011;39866;48.638;-2.020;2022-07-18T06:26:48;5.93;;;2.08;;
53959;SDS011;39866;48.638;-2.020;2022-07-18T06:29:14;9.38;;;2.00;;
53959;SDS011;39866;48.638;-2.020;2022-07-18T06:31:40;9.93;;;2.03;;
53959;SDS011;39866;48.638;-2.020;2022-07-18T06:34:05;7.50;;;2.25;;
53959;SDS011;39866;48.638;-2.020;2022-07-18T06:36:31;3.25;;;1.80;;
53959;SDS011;39866;48.638;-2.020;2022-07-18T06:38:56;4.53;;;2.05;;
53959;SDS011;39866;48.638;-2.020;2022-07-18T06:41:22;6.25;;;1.77;;
53959;SDS011;39866;48.638;-2.020;2022-07-18T06:43:47;4.20;;;2.00;;
53959;SDS011;39866;48.638;-2.020;2022-07-18T06:46:13;5.68;;;1.77;;
53959;SDS011;39866;48.638;-2.020;2022-07-18T06:48:38;10.90;;;2.05;;
53959;SDS011;39866;48.638;-2.020;2022-07-18T06:51:04;8.23;;;2.22;;
53959;SDS011;39866;48.638;-2.020;2022-07-18T06:53:31;6.72;;;2.13;;
53959;SDS011;39866;48.638;-2.020;2022-07-18T06:55:57;6.32;;;2.03;;
53959;SDS011;39866;48.638;-2.020;2022-07-18T06:58:23;5.85;;;2.17;;
53959;SDS011;39866;48.638;-2.020;2022-07-18T07:00:49;5.40;;;2.10;;
53959;SDS011;39866;48.638;-2.020;2022-07-18T07:03:15;5.97;;;1.83;;
53959;SDS011;39866;48.638;-2.020;2022-07-18T07:05:41;6.40;;;1.90;;
53959;SDS011;39866;48.638;-2.020;2022-07-18T07:08:06;8.75;;;2.20;;
53959;SDS011;39866;48.638;-2.020;2022-07-18T07:10:31;4.07;;;1.92;;
53959;SDS011;39866;48.638;-2.020;2022-07-18T07:12:58;5.70;;;1.73;;
53959;SDS011;39866;48.638;-2.020;2022-07-18T07:15:23;7.13;;;1.90;;
53959;SDS011;39866;48.638;-2.020;2022-07-18T07:17:50;5.90;;;1.75;;
53959;SDS011;39866;48.638;-2.020;2022-07-18T07:20:17;5.63;;;1.70;;
53959;SDS011;39866;48.638;-2.020;2022-07-18T07:22:45;4.53;;;1.65;;
53959;SDS011;39866;48.638;-2.020;2022-07-18T07:25:12;6.15;;;1.80;;
53959;SDS011;39866;48.638;-2.020;2022-07-18T07:27:38;8.27;;;1.80;;
53959;SDS011;39866;48.638;-2.020;2022-07-18T07:30:04;6.50;;;1.90;;
53959;SDS011;39866;48.638;-2.020;2022-07-18T07:32:33;6.65;;;2.10;;
53959;SDS011;39866;48.638;-2.020;2022-07-18T07:34:59;6.43;;;1.83;;
53959;SDS011;39866;48.638;-2.020;2022-07-18T07:37:24;7.70;;;2.78;;
53959;SDS011;39866;48.638;-2.020;2022-07-18T07:39:50;5.20;;;2.30;;
53959;SDS011;39866;48.638;-2.020;2022-07-18T07:42:15;9.13;;;2.08;;
53959;SDS011;39866;48.638;-2.020;2022-07-18T07:44:40;4.15;;;1.60;;
53959;SDS011;39866;48.638;-2.020;2022-07-18T07:47:06;6.05;;;1.83;;
53959;SDS011;39866;48.638;-2.020;2022-07-18T07:49:31;7.25;;;1.95;;
53959;SDS011;39866;48.638;-2.020;2022-07-18T07:51:59;6.18;;;1.90;;
53959;SDS011;39866;48.638;-2.020;2022-07-18T07:54:24;3.80;;;1.60;;
53959;SDS011;39866;48.638;-2.020;2022-07-18T07:56:50;5.63;;;1.50;;
53959;SDS011;39866;48.638;-2.020;2022-07-18T07:59:15;7.95;;;2.13;;
53959;SDS011;39866;48.638;-2.020;2022-07-18T08:01:40;8.50;;;2.10;;
53959;SDS011;39866;48.638;-2.020;2022-07-18T08:04:06;4.35;;;2.10;;
53959;SDS011;39866;48.638;-2.020;2022-07-18T08:06:31;7.47;;;2.25;;
53959;SDS011;39866;48.638;-2.020;2022-07-18T08:08:56;5.78;;;2.10;;
53959;SDS011;39866;48.638;-2.020;2022-07-18T08:11:22;7.97;;;2.00;;
53959;SDS011;39866;48.638;-2.020;2022-07-18T08:13:47;7.32;;;1.98;;
53959;SDS011;39866;48.638;-2.020;2022-07-18T08:16:12;9.85;;;2.90;;
53959;SDS011;39866;48.638;-2.020;2022-07-18T08:18:38;7.07;;;4.20;;
53959;SDS011;39866;48.638;-2.020;2022-07-18T08:21:04;8.95;;;2.20;;
53959;SDS011;39866;48.638;-2.020;2022-07-18T08:23:29;3.13;;;1.80;;
53959;SDS011;39866;48.638;-2.020;2022-07-18T08:25:54;6.70;;;2.05;;
53959;SDS011;39866;48.638;-2.020;2022-07-18T08:28:20;5.40;;;1.92;;
53959;SDS011;39866;48.638;-2.020;2022-07-18T08:30:45;5.55;;;1.95;;
53959;SDS011;39866;48.638;-2.020;2022-07-18T08:33:10;5.43;;;2.70;;
53959;SDS011;39866;48.638;-2.020;2022-07-18T08:35:36;4.75;;;2.40;;
53959;SDS011;39866;48.638;-2.020;2022-07-18T08:38:01;7.95;;;1.75;;
53959;SDS011;39866;48.638;-2.020;2022-07-18T08:40:28;5.10;;;2.05;;
53959;SDS011;39866;48.638;-2.020;2022-07-18T08:42:54;4.60;;;1.90;;
53959;SDS011;39866;48.638;-2.020;2022-07-18T08:45:23;5.63;;;1.80;;
53959;SDS011;39866;48.638;-2.020;2022-07-18T08:47:50;5.05;;;1.85;;
53959;SDS011;39866;48.638;-2.020;2022-07-18T08:50:16;6.70;;;1.83;;
53959;SDS011;39866;48.638;-2.020;2022-07-18T08:52:42;8.30;;;2.13;;
53959;SDS011;39866;48.638;-2.020;2022-07-18T08:55:08;6.40;;;1.70;;
53959;SDS011;39866;48.638;-2.020;2022-07-18T08:57:34;9.20;;;4.38;;
53959;SDS011;39866;48.638;-2.020;2022-07-18T09:00:01;8.20;;;3.20;;
53959;SDS011;39866;48.638;-2.020;2022-07-18T09:02:28;6.32;;;2.53;;
53959;SDS011;39866;48.638;-2.020;2022-07-18T09:04:54;5.57;;;1.95;;
53959;SDS011;39866;48.638;-2.020;2022-07-18T09:07:23;6.53;;;2.10;;
53959;SDS011;39866;48.638;-2.020;2022-07-18T09:09:54;6.90;;;1.90;;
53959;SDS011;39866;48.638;-2.020;2022-07-18T09:12:22;6.75;;;2.17;;
53959;SDS011;39866;48.638;-2.020;2022-07-18T09:14:48;10.45;;;2.60;;
53959;SDS011;39866;48.638;-2.020;2022-07-18T09:17:15;5.85;;;2.08;;
53959;SDS011;39866;48.638;-2.020;2022-07-18T09:19:42;4.35;;;1.95;;
53959;SDS011;39866;48.638;-2.020;2022-07-18T09:22:21;11.90;;;2.13;;
53959;SDS011;39866;48.638;-2.020;2022-07-18T09:27:35;6.53;;;2.00;;
53959;SDS011;39866;48.638;-2.020;2022-07-18T09:32:34;3.95;;;2.10;;
53959;SDS011;39866;48.638;-2.020;2022-07-18T09:35:19;6.30;;;2.10;;
53959;SDS011;39866;48.638;-2.020;2022-07-18T09:38:08;4.85;;;2.00;;
53959;SDS011;39866;48.638;-2.020;2022-07-18T09:40:36;10.37;;;1.90;;
53959;SDS011;39866;48.638;-2.020;2022-07-18T09:43:05;4.53;;;2.13;;
53959;SDS011;39866;48.638;-2.020;2022-07-18T09:45:33;5.65;;;2.00;;
53959;SDS011;39866;48.638;-2.020;2022-07-18T09:47:59;6.57;;;1.92;;
53959;SDS011;39866;48.638;-2.020;2022-07-18T09:50:33;3.45;;;1.60;;
53959;SDS011;39866;48.638;-2.020;2022-07-18T09:55:32;8.97;;;2.10;;
53959;SDS011;39866;48.638;-2.020;2022-07-18T09:58:07;4.43;;;2.00;;
53959;SDS011;39866;48.638;-2.020;2022-07-18T10:00:37;9.52;;;2.25;;
53959;SDS011;39866;48.638;-2.020;2022-07-18T10:03:04;5.75;;;2.10;;
53959;SDS011;39866;48.638;-2.020;2022-07-18T10:05:35;8.65;;;2.10;;
53959;SDS011;39866;48.638;-2.020;2022-07-18T10:08:03;6.50;;;1.90;;
53959;SDS011;39866;48.638;-2.020;2022-07-18T10:10:32;7.97;;;2.10;;
53959;SDS011;39866;48.638;-2.020;2022-07-18T10:12:58;9.32;;;2.10;;
53959;SDS011;39866;48.638;-2.020;2022-07-18T10:15:26;6.22;;;2.10;;
53959;SDS011;39866;48.638;-2.020;2022-07-18T10:17:53;10.30;;;2.05;;
53959;SDS011;39866;48.638;-2.020;2022-07-18T10:20:27;9.07;;;2.10;;
53959;SDS011;39866;48.638;-2.020;2022-07-18T10:22:59;10.02;;;1.98;;
53959;SDS011;39866;48.638;-2.020;2022-07-18T10:25:32;6.05;;;1.90;;
53959;SDS011;39866;48.638;-2.020;2022-07-18T10:28:05;5.35;;;2.20;;
53959;SDS011;39866;48.638;-2.020;2022-07-18T10:30:44;6.13;;;1.85;;
53959;SDS011;39866;48.638;-2.020;2022-07-18T10:36:14;4.05;;;2.00;;
53959;SDS011;39866;48.638;-2.020;2022-07-18T10:50:02;7.38;;;1.75;;
53959;SDS011;39866;48.638;-2.020;2022-07-18T10:57:27;6.78;;;1.85;;
53959;SDS011;39866;48.638;-2.020;2022-07-18T11:00:01;6.97;;;1.30;;
53959;SDS011;39866;48.638;-2.020;2022-07-18T11:02:40;4.65;;;1.50;;
53959;SDS011;39866;48.638;-2.020;2022-07-18T11:18:23;3.58;;;1.17;;
53959;SDS011;39866;48.638;-2.020;2022-07-18T11:20:50;3.40;;;1.25;;
53959;SDS011;39866;48.638;-2.020;2022-07-18T11:23:23;4.05;;;1.20;;
53959;SDS011;39866;48.638;-2.020;2022-07-18T11:25:52;5.05;;;1.13;;
53959;SDS011;39866;48.638;-2.020;2022-07-18T11:28:23;4.35;;;1.10;;
53959;SDS011;39866;48.638;-2.020;2022-07-18T11:33:27;6.55;;;1.70;;
53959;SDS011;39866;48.638;-2.020;2022-07-18T11:38:56;7.20;;;1.52;;
53959;SDS011;39866;48.638;-2.020;2022-07-18T11:41:23;6.32;;;1.13;;
53959;SDS011;39866;48.638;-2.020;2022-07-18T11:43:49;3.17;;;1.30;;
53959;SDS011;39866;48.638;-2.020;2022-07-18T11:46:17;2.67;;;1.23;;
53959;SDS011;39866;48.638;-2.020;2022-07-18T11:48:45;4.95;;;1.13;;
53959;SDS011;39866;48.638;-2.020;2022-07-18T11:51:22;2.45;;;1.17;;
53959;SDS011;39866;48.638;-2.020;2022-07-18T11:53:49;7.97;;;1.30;;
53959;SDS011;39866;48.638;-2.020;2022-07-18T11:56:17;6.30;;;1.73;;
53959;SDS011;39866;48.638;-2.020;2022-07-18T11:58:44;7.82;;;1.98;;
53959;SDS011;39866;48.638;-2.020;2022-07-18T12:01:11;7.93;;;1.60;;
53959;SDS011;39866;48.638;-2.020;2022-07-18T12:03:39;5.35;;;1.65;;
53959;SDS011;39866;48.638;-2.020;2022-07-18T12:06:13;5.07;;;1.40;;
53959;SDS011;39866;48.638;-2.020;2022-07-18T12:08:47;7.50;;;1.48;;
53959;SDS011;39866;48.638;-2.020;2022-07-18T12:11:15;9.20;;;1.50;;
53959;SDS011;39866;48.638;-2.020;2022-07-18T12:13:52;4.60;;;1.25;;
53959;SDS011;39866;48.638;-2.020;2022-07-18T12:18:57;6.38;;;1.42;;
53959;SDS011;39866;48.638;-2.020;2022-07-18T12:21:40;7.75;;;1.30;;
53959;SDS011;39866;48.638;-2.020;2022-07-18T12:24:23;5.45;;;1.40;;
53959;SDS011;39866;48.638;-2.020;2022-07-18T12:35:21;4.03;;;1.40;;
53959;SDS011;39866;48.638;-2.020;2022-07-18T12:38:00;3.25;;;1.50;;
53959;SDS011;39866;48.638;-2.020;2022-07-18T12:40:55;5.95;;;1.60;;
53959;SDS011;39866;48.638;-2.020;2022-07-18T12:43:30;5.95;;;1.30;;
53959;SDS011;39866;48.638;-2.020;2022-07-18T12:46:01;6.97;;;1.40;;
53959;SDS011;39866;48.638;-2.020;2022-07-18T12:48:29;4.45;;;1.40;;
53959;SDS011;39866;48.638;-2.020;2022-07-18T12:51:00;7.18;;;1.90;;
53959;SDS011;39866;48.638;-2.020;2022-07-18T12:53:28;6.50;;;2.10;;
53959;SDS011;39866;48.638;-2.020;2022-07-18T12:55:55;9.38;;;1.80;;
53959;SDS011;39866;48.638;-2.020;2022-07-18T12:58:21;7.82;;;1.83;;
53959;SDS011;39866;48.638;-2.020;2022-07-18T13:00:47;7.07;;;2.25;;
53959;SDS011;39866;48.638;-2.020;2022-07-18T13:03:13;7.22;;;2.03;;
53959;SDS011;39866;48.638;-2.020;2022-07-18T13:05:39;7.78;;;2.05;;
53959;SDS011;39866;48.638;-2.020;2022-07-18T13:08:05;5.72;;;2.00;;
53959;SDS011;39866;48.638;-2.020;2022-07-18T13:10:31;5.15;;;1.98;;
53959;SDS011;39866;48.638;-2.020;2022-07-18T13:12:57;5.80;;;1.90;;
53959;SDS011;39866;48.638;-2.020;2022-07-18T13:15:22;6.53;;;1.75;;
53959;SDS011;39866;48.638;-2.020;2022-07-18T13:17:48;4.15;;;1.70;;
53959;SDS011;39866;48.638;-2.020;2022-07-18T13:20:15;6.95;;;2.00;;
53959;SDS011;39866;48.638;-2.020;2022-07-18T13:22:40;8.77;;;2.00;;
53959;SDS011;39866;48.638;-2.020;2022-07-18T13:25:07;9.75;;;2.00;;
53959;SDS011;39866;48.638;-2.020;2022-07-18T13:27:34;8.48;;;2.22;;
53959;SDS011;39866;48.638;-2.020;2022-07-18T13:30:00;13.60;;;2.30;;
53959;SDS011;39866;48.638;-2.020;2022-07-18T13:32:29;5.80;;;2.03;;
53959;SDS011;39866;48.638;-2.020;2022-07-18T13:34:55;9.95;;;2.05;;
53959;SDS011;39866;48.638;-2.020;2022-07-18T13:37:21;17.98;;;2.53;;
53959;SDS011;39866;48.638;-2.020;2022-07-18T13:39:46;6.28;;;1.85;;
53959;SDS011;39866;48.638;-2.020;2022-07-18T13:42:12;5.53;;;1.80;;
53959;SDS011;39866;48.638;-2.020;2022-07-18T13:44:37;6.20;;;2.00;;
53959;SDS011;39866;48.638;-2.020;2022-07-18T13:47:02;6.90;;;2.15;;
53959;SDS011;39866;48.638;-2.020;2022-07-18T13:49:28;7.85;;;2.40;;
53959;SDS011;39866;48.638;-2.020;2022-07-18T13:51:53;8.38;;;2.10;;
53959;SDS011;39866;48.638;-2.020;2022-07-18T13:54:19;7.82;;;2.20;;
53959;SDS011;39866;48.638;-2.020;2022-07-18T13:56:46;7.82;;;2.20;;
53959;SDS011;39866;48.638;-2.020;2022-07-18T13:59:11;11.25;;;2.20;;
53959;SDS011;39866;48.638;-2.020;2022-07-18T14:01:37;5.90;;;2.50;;
53959;SDS011;39866;48.638;-2.020;2022-07-18T14:04:03;8.35;;;2.50;;
53959;SDS011;39866;48.638;-2.020;2022-07-18T14:06:29;6.72;;;2.17;;
53959;SDS011;39866;48.638;-2.020;2022-07-18T14:08:54;8.90;;;2.50;;
53959;SDS011;39866;48.638;-2.020;2022-07-18T14:11:19;9.95;;;2.20;;
53959;SDS011;39866;48.638;-2.020;2022-07-18T14:13:45;9.88;;;2.30;;
53959;SDS011;39866;48.638;-2.020;2022-07-18T14:16:11;11.00;;;2.78;;
53959;SDS011;39866;48.638;-2.020;2022-07-18T14:18:37;7.88;;;2.47;;
53959;SDS011;39866;48.638;-2.020;2022-07-18T14:21:02;10.20;;;2.70;;
53959;SDS011;39866;48.638;-2.020;2022-07-18T14:23:28;7.85;;;2.30;;
53959;SDS011;39866;48.638;-2.020;2022-07-18T14:25:53;10.05;;;3.00;;
53959;SDS011;39866;48.638;-2.020;2022-07-18T14:28:18;10.40;;;2.97;;
53959;SDS011;39866;48.638;-2.020;2022-07-18T14:30:44;9.65;;;2.85;;
53959;SDS011;39866;48.638;-2.020;2022-07-18T14:33:09;8.55;;;2.90;;
53959;SDS011;39866;48.638;-2.020;2022-07-18T14:35:35;6.90;;;2.53;;
53959;SDS011;39866;48.638;-2.020;2022-07-18T14:38:00;8.48;;;2.50;;
53959;SDS011;39866;48.638;-2.020;2022-07-18T14:40:26;8.80;;;3.03;;
53959;SDS011;39866;48.638;-2.020;2022-07-18T14:42:51;7.97;;;2.72;;
53959;SDS011;39866;48.638;-2.020;2022-07-18T14:45:17;10.88;;;3.20;;
53959;SDS011;39866;48.638;-2.020;2022-07-18T14:47:42;10.00;;;3.33;;
53959;SDS011;39866;48.638;-2.020;2022-07-18T14:50:08;12.57;;;3.47;;
53959;SDS011;39866;48.638;-2.020;2022-07-18T14:52:35;11.25;;;3.65;;
53959;SDS011;39866;48.638;-2.020;2022-07-18T14:55:01;11.95;;;3.42;;
53959;SDS011;39866;48.638;-2.020;2022-07-18T14:57:26;9.45;;;3.80;;
53959;SDS011;39866;48.638;-2.020;2022-07-18T14:59:52;10.65;;;3.53;;
53959;SDS011;39866;48.638;-2.020;2022-07-18T15:02:17;13.68;;;3.05;;
53959;SDS011;39866;48.638;-2.020;2022-07-18T15:04:43;13.27;;;3.40;;
53959;SDS011;39866;48.638;-2.020;2022-07-18T15:07:08;11.32;;;3.47;;
53959;SDS011;39866;48.638;-2.020;2022-07-18T15:09:34;9.73;;;3.30;;
53959;SDS011;39866;48.638;-2.020;2022-07-18T15:11:59;12.57;;;3.60;;
53959;SDS011;39866;48.638;-2.020;2022-07-18T15:14:24;14.30;;;3.37;;
53959;SDS011;39866;48.638;-2.020;2022-07-18T15:16:50;11.05;;;2.92;;
53959;SDS011;39866;48.638;-2.020;2022-07-18T15:19:15;10.48;;;3.35;;
53959;SDS011;39866;48.638;-2.020;2022-07-18T15:21:41;27.92;;;3.90;;
53959;SDS011;39866;48.638;-2.020;2022-07-18T15:24:06;9.93;;;3.50;;
53959;SDS011;39866;48.638;-2.020;2022-07-18T15:26:32;9.57;;;3.67;;
53959;SDS011;39866;48.638;-2.020;2022-07-18T15:28:58;9.68;;;3.65;;
53959;SDS011;39866;48.638;-2.020;2022-07-18T15:31:24;7.43;;;4.00;;